createdAt,value
2023-03-18T00:00:49.185Z,12.34
2023-03-18T00:03:17.511Z,11.85
2023-03-18T00:05:45.687Z,11.87
2023-03-18T00:08:14.942Z,12.33
2023-03-18T00:10:43.001Z,12.08
2023-03-18T00:13:10.877Z,11.99
2023-03-18T00:15:38.818Z,12.07
2023-03-18T00:18:06.760Z,12.09
2023-03-18T00:20:39.464Z,12.08
2023-03-18T00:23:08.752Z,11.88
2023-03-18T00:25:38.880Z,11.90
2023-03-18T00:28:08.091Z,11.78
2023-03-18T00:30:38.335Z,12.13
2023-03-18T00:33:06.344Z,11.87
2023-03-18T00:35:34.437Z,12.15
2023-03-18T00:38:03.994Z,12.40
2023-03-18T00:40:43.243Z,11.71
2023-03-18T00:43:14.280Z,12.23
2023-03-18T00:45:42.739Z,11.65
2023-03-18T00:48:11.155Z,11.87
2023-03-18T00:50:38.980Z,11.70
2023-03-18T00:53:07.016Z,12.12
2023-03-18T00:55:35.176Z,11.87
2023-03-18T00:58:03.096Z,11.83
2023-03-18T01:00:32.560Z,11.35
2023-03-18T01:03:00.640Z,11.62
2023-03-18T01:05:33.980Z,11.36
2023-03-18T01:08:01.837Z,11.78
2023-03-18T01:10:30.654Z,11.44
2023-03-18T01:12:59.328Z,11.34
2023-03-18T01:15:27.479Z,11.47
2023-03-18T01:17:58.376Z,11.51
2023-03-18T01:20:27.109Z,11.55
2023-03-18T01:22:57.088Z,11.25
2023-03-18T01:25:25.467Z,11.78
2023-03-18T01:27:55.747Z,11.76
2023-03-18T01:30:24.700Z,11.57
2023-03-18T01:32:56.291Z,11.60
2023-03-18T01:35:25.660Z,11.61
2023-03-18T01:37:53.594Z,11.87
2023-03-18T01:40:22.419Z,11.71
2023-03-18T01:42:57.721Z,11.52
2023-03-18T01:45:30.510Z,11.75
2023-03-18T01:48:03.026Z,11.72
2023-03-18T01:50:34.524Z,11.54
2023-03-18T01:53:07.375Z,11.40
2023-03-18T01:55:37.361Z,11.47
2023-03-18T01:58:10.088Z,11.72
2023-03-18T02:00:42.839Z,11.84
2023-03-18T02:03:14.033Z,11.80
2023-03-18T02:05:44.328Z,12.02
2023-03-18T02:08:12.442Z,12.01
2023-03-18T02:10:40.606Z,11.92
2023-03-18T02:13:12.452Z,11.46
2023-03-18T02:15:47.763Z,11.65
2023-03-18T02:18:21.338Z,11.85
2023-03-18T02:21:15.850Z,11.72
2023-03-18T02:23:54.181Z,11.60
2023-03-18T02:26:30.684Z,11.71
2023-03-18T02:29:04.785Z,11.48
2023-03-18T02:31:42.768Z,11.71
2023-03-18T02:34:13.436Z,11.84
2023-03-18T02:36:45.313Z,11.75
2023-03-18T02:39:15.478Z,11.80
2023-03-18T02:41:44.859Z,11.58
2023-03-18T02:44:15.033Z,11.79
2023-03-18T02:47:09.024Z,11.85
2023-03-18T02:49:37.687Z,11.85
2023-03-18T02:52:06.894Z,11.68
2023-03-18T02:54:34.852Z,11.43
2023-03-18T02:57:03.037Z,11.57
2023-03-18T02:59:32.649Z,11.38
2023-03-18T03:02:01.432Z,11.66
2023-03-18T03:04:29.852Z,11.71
2023-03-18T03:06:58.320Z,11.74
2023-03-18T03:09:37.180Z,11.85
2023-03-18T03:12:07.892Z,11.87
2023-03-18T03:14:42.032Z,11.75
2023-03-18T03:17:10.820Z,11.64
2023-03-18T03:19:39.006Z,11.87
2023-03-18T03:22:07.118Z,11.83
2023-03-18T03:24:35.217Z,11.83
2023-03-18T03:27:03.672Z,11.85
2023-03-18T03:29:31.571Z,11.77
2023-03-18T03:32:01.976Z,11.66
2023-03-18T03:34:29.914Z,11.80
2023-03-18T03:36:57.872Z,11.60
2023-03-18T03:39:27.466Z,11.83
2023-03-18T03:41:55.601Z,11.87
2023-03-18T03:44:24.364Z,11.86
2023-03-18T03:46:52.474Z,11.95
2023-03-18T03:49:24.634Z,11.85
2023-03-18T03:51:52.688Z,11.87
2023-03-18T03:54:22.060Z,11.77
2023-03-18T03:56:49.961Z,11.76
2023-03-18T03:59:20.616Z,11.67
2023-03-18T04:02:23.685Z,11.72
2023-03-18T04:04:53.500Z,11.89
2023-03-18T04:07:31.655Z,11.80
2023-03-18T04:09:59.796Z,11.72
2023-03-18T04:12:27.723Z,11.89
2023-03-18T04:15:00.849Z,11.90
2023-03-18T04:17:29.403Z,11.77
2023-03-18T04:19:58.681Z,11.63
2023-03-18T04:22:30.805Z,11.72
2023-03-18T04:24:59.247Z,11.86
2023-03-18T04:27:28.155Z,11.50
2023-03-18T04:29:57.965Z,11.79
2023-03-18T04:32:33.787Z,11.66
2023-03-18T04:35:03.413Z,11.82
2023-03-18T04:37:31.533Z,11.77
2023-03-18T04:40:02.209Z,11.69
2023-03-18T04:42:31.092Z,11.74
2023-03-18T04:44:59.442Z,11.67
2023-03-18T04:47:28.076Z,11.66
2023-03-18T04:49:56.158Z,11.76
2023-03-18T04:52:25.838Z,11.51
2023-03-18T04:54:54.948Z,11.48
2023-03-18T04:57:23.106Z,11.67
2023-03-18T04:59:55.525Z,11.57
2023-03-18T05:02:24.146Z,11.57
2023-03-18T05:04:52.308Z,11.62
2023-03-18T05:07:21.652Z,11.57
2023-03-18T05:09:59.720Z,11.59
2023-03-18T05:12:28.256Z,11.48
2023-03-18T05:14:56.404Z,11.49
2023-03-18T05:17:24.392Z,11.54
2023-03-18T05:19:59.284Z,11.45
2023-03-18T05:22:27.543Z,11.60
2023-03-18T05:25:11.479Z,11.46
2023-03-18T05:27:41.826Z,11.54
2023-03-18T05:30:24.262Z,11.58
2023-03-18T05:32:55.007Z,11.54
2023-03-18T05:35:36.473Z,11.47
2023-03-18T05:38:05.085Z,11.32
2023-03-18T05:40:34.484Z,11.36
2023-03-18T05:43:26.241Z,11.22
2023-03-18T05:45:57.758Z,11.27
2023-03-18T05:48:41.642Z,11.41
2023-03-18T05:51:10.456Z,11.60
2023-03-18T05:53:41.100Z,11.45
2023-03-18T05:56:20.310Z,11.59
2023-03-18T05:58:52.220Z,11.44
2023-03-18T06:01:43.204Z,11.66
2023-03-18T06:04:11.425Z,11.68
2023-03-18T06:06:40.776Z,11.61
2023-03-18T06:09:09.110Z,11.75
2023-03-18T06:11:40.034Z,11.72
2023-03-18T06:14:09.854Z,11.74
2023-03-18T06:16:38.163Z,11.57
2023-03-18T06:19:06.731Z,11.47
2023-03-18T06:21:34.835Z,11.71
2023-03-18T06:24:04.885Z,11.61
2023-03-18T06:26:35.176Z,11.83
2023-03-18T06:29:07.103Z,11.81
2023-03-18T06:31:35.510Z,11.78
2023-03-18T06:34:05.482Z,11.73
2023-03-18T06:36:37.553Z,11.72
2023-03-18T06:39:10.687Z,11.73
2023-03-18T06:41:39.622Z,11.82
2023-03-18T06:44:28.034Z,11.74
2023-03-18T06:47:01.669Z,11.93
2023-03-18T06:49:32.954Z,11.98
2023-03-18T06:52:10.555Z,12.05
2023-03-18T06:54:39.165Z,12.08
2023-03-18T06:57:07.582Z,12.10
2023-03-18T06:59:38.199Z,12.01
2023-03-18T07:02:08.651Z,12.14
2023-03-18T07:04:36.657Z,12.08
2023-03-18T07:07:05.959Z,12.11
2023-03-18T07:09:36.412Z,12.11
2023-03-18T07:12:06.432Z,12.35
2023-03-18T07:14:34.472Z,12.14
2023-03-18T07:17:03.910Z,12.33
2023-03-18T07:19:33.060Z,12.41
2023-03-18T07:22:02.320Z,12.57
2023-03-18T07:24:30.382Z,12.88
2023-03-18T07:26:58.862Z,13.43
2023-03-18T07:29:26.834Z,13.66
2023-03-18T07:31:55.117Z,13.08
2023-03-18T07:34:24.476Z,13.16
2023-03-18T07:36:53.096Z,13.48
2023-03-18T07:39:22.588Z,13.77
2023-03-18T07:41:51.728Z,13.69
2023-03-18T07:44:23.233Z,14.07
2023-03-18T07:46:51.471Z,14.54
2023-03-18T07:49:19.476Z,14.61
2023-03-18T07:51:48.777Z,14.69
2023-03-18T07:54:18.087Z,14.73
2023-03-18T07:56:46.013Z,14.97
2023-03-18T07:59:14.873Z,14.71
2023-03-18T08:01:43.490Z,14.74
2023-03-18T08:04:11.827Z,14.65
2023-03-18T08:06:40.176Z,14.86
2023-03-18T08:09:10.654Z,14.90
2023-03-18T08:11:38.765Z,14.89
2023-03-18T08:14:07.268Z,15.53
2023-03-18T08:16:35.301Z,15.88
2023-03-18T08:19:03.255Z,15.41
2023-03-18T08:21:31.658Z,15.74
2023-03-18T08:23:59.571Z,15.87
2023-03-18T08:26:28.852Z,15.67
2023-03-18T08:28:56.753Z,15.75
2023-03-18T08:31:24.678Z,16.01
2023-03-18T08:33:54.218Z,16.00
2023-03-18T08:36:22.661Z,16.74
2023-03-18T08:38:50.707Z,17.16
2023-03-18T08:41:18.588Z,16.92
2023-03-18T08:43:48.097Z,16.46
2023-03-18T08:46:16.200Z,16.04
2023-03-18T08:48:44.148Z,16.63
2023-03-18T08:51:12.177Z,16.71
2023-03-18T08:53:40.115Z,16.93
2023-03-18T08:56:08.956Z,16.93
2023-03-18T08:58:37.187Z,17.07
2023-03-18T09:01:08.696Z,16.77
2023-03-18T09:03:38.041Z,17.27
2023-03-18T09:06:06.477Z,16.95
2023-03-18T09:08:34.608Z,17.44
2023-03-18T09:11:02.453Z,17.27
2023-03-18T09:13:30.436Z,17.37
2023-03-18T09:15:58.343Z,17.35
2023-03-18T09:18:28.270Z,17.07
2023-03-18T09:20:56.577Z,17.47
2023-03-18T09:23:26.294Z,17.95
2023-03-18T09:25:54.820Z,18.30
2023-03-18T09:28:22.836Z,18.02
2023-03-18T09:30:51.173Z,18.57
2023-03-18T09:33:19.594Z,18.80
2023-03-18T09:35:49.498Z,18.88
2023-03-18T09:38:19.612Z,18.90
2023-03-18T09:40:56.231Z,19.03
2023-03-18T09:43:50.549Z,19.07
2023-03-18T09:46:26.056Z,19.29
2023-03-18T09:49:14.920Z,19.71
2023-03-18T09:51:54.611Z,19.36
2023-03-18T09:54:33.081Z,19.42
2023-03-18T09:57:02.107Z,19.74
2023-03-18T09:59:38.215Z,19.58
2023-03-18T10:02:16.931Z,18.98
2023-03-18T10:04:50.366Z,19.38
2023-03-18T10:07:23.782Z,20.06
2023-03-18T10:09:55.599Z,20.06
2023-03-18T10:12:32.355Z,20.51
2023-03-18T10:15:16.295Z,20.53
2023-03-18T10:17:47.485Z,20.77
2023-03-18T10:20:26.351Z,21.40
2023-03-18T10:23:03.626Z,21.38
2023-03-18T10:25:37.371Z,21.24
2023-03-18T10:28:37.557Z,21.86
2023-03-18T10:31:19.568Z,21.44
2023-03-18T10:33:55.501Z,21.13
2023-03-18T10:36:29.422Z,21.71
2023-03-18T10:39:01.260Z,21.88
2023-03-18T10:41:34.204Z,21.96
2023-03-18T10:44:04.734Z,21.77
2023-03-18T10:46:35.329Z,21.51
2023-03-18T10:49:08.279Z,21.46
2023-03-18T10:51:41.194Z,21.97
2023-03-18T10:54:16.828Z,22.36
2023-03-18T10:56:44.997Z,22.69
2023-03-18T10:59:16.830Z,22.84
2023-03-18T11:01:48.413Z,22.93
2023-03-18T11:04:19.372Z,23.24
2023-03-18T11:06:50.689Z,23.47
2023-03-18T11:09:22.248Z,22.85
2023-03-18T11:11:51.494Z,22.46
2023-03-18T11:14:22.863Z,22.58
2023-03-18T11:16:58.361Z,22.06
2023-03-18T11:19:30.158Z,22.86
2023-03-18T11:22:04.522Z,23.36
2023-03-18T11:24:39.516Z,22.63
2023-03-18T11:27:26.503Z,22.73
2023-03-18T11:29:58.129Z,22.54
2023-03-18T11:32:29.069Z,22.02
2023-03-18T11:35:00.842Z,22.29
2023-03-18T11:37:32.883Z,22.20
2023-03-18T11:40:26.281Z,21.39
2023-03-18T11:42:58.914Z,21.66
2023-03-18T11:45:45.009Z,22.23
2023-03-18T11:48:18.645Z,22.02
2023-03-18T11:51:02.243Z,22.04
2023-03-18T11:53:37.276Z,22.20
2023-03-18T11:56:17.101Z,22.46
2023-03-18T11:59:12.715Z,22.33
2023-03-18T12:01:48.883Z,22.43
2023-03-18T12:04:44.994Z,22.58
2023-03-18T12:07:26.529Z,22.55
2023-03-18T12:10:03.851Z,22.27
2023-03-18T12:12:50.110Z,23.09
2023-03-18T12:15:34.690Z,22.82
2023-03-18T12:18:11.495Z,22.96
2023-03-18T12:20:50.675Z,23.13
2023-03-18T12:23:38.177Z,22.89
2023-03-18T12:26:09.558Z,22.64
2023-03-18T12:28:48.248Z,22.94
2023-03-18T12:31:50.069Z,22.86
2023-03-18T12:34:34.268Z,22.45
2023-03-18T12:37:16.538Z,22.12
2023-03-18T12:40:12.535Z,22.52
2023-03-18T12:42:56.062Z,22.47
2023-03-18T12:45:26.670Z,22.12
2023-03-18T12:48:00.612Z,22.33
2023-03-18T12:50:33.159Z,22.38
2023-03-18T12:53:03.708Z,22.33
2023-03-18T12:55:35.414Z,22.37
2023-03-18T12:58:07.474Z,22.23
2023-03-18T13:00:43.551Z,22.16
2023-03-18T13:03:26.305Z,21.89
2023-03-18T13:05:58.500Z,21.94
2023-03-18T13:08:46.716Z,21.97
2023-03-18T13:11:31.064Z,21.87
2023-03-18T13:14:04.691Z,22.20
2023-03-18T13:16:36.650Z,22.14
2023-03-18T13:19:04.924Z,22.26
2023-03-18T13:21:37.522Z,22.49
2023-03-18T13:24:24.938Z,22.38
2023-03-18T13:27:15.387Z,22.55
2023-03-18T13:29:52.676Z,22.40
2023-03-18T13:32:36.135Z,22.23
2023-03-18T13:35:37.909Z,22.41
2023-03-18T13:38:30.703Z,22.20
2023-03-18T13:41:13.881Z,21.78
2023-03-18T13:43:49.178Z,21.87
2023-03-18T13:46:22.214Z,22.11
2023-03-18T13:48:55.477Z,21.48
2023-03-18T13:51:52.346Z,21.84
2023-03-18T13:54:21.597Z,21.74
2023-03-18T13:56:55.550Z,21.58
2023-03-18T13:59:46.914Z,21.80
2023-03-18T14:02:43.577Z,21.61
2023-03-18T14:05:40.140Z,21.76
2023-03-18T14:08:52.823Z,21.74
2023-03-18T14:11:53.023Z,21.67
2023-03-18T14:14:56.823Z,21.14
2023-03-18T14:17:34.687Z,21.45
2023-03-18T14:20:27.366Z,21.62
2023-03-18T14:23:17.766Z,21.60
2023-03-18T14:25:54.453Z,21.68
2023-03-18T14:28:26.834Z,21.63
2023-03-18T14:31:13.865Z,21.60
2023-03-18T14:33:58.374Z,21.63
2023-03-18T14:36:46.677Z,21.34
2023-03-18T14:39:20.480Z,21.52
2023-03-18T14:41:54.365Z,21.32
2023-03-18T14:44:25.374Z,21.42
2023-03-18T14:46:59.256Z,21.52
2023-03-18T14:49:37.118Z,21.58
2023-03-18T14:52:12.439Z,21.43
2023-03-18T14:54:46.032Z,21.76
2023-03-18T14:57:14.248Z,21.73
2023-03-18T14:59:42.881Z,21.60
2023-03-18T15:02:23.294Z,21.71
2023-03-18T15:04:56.204Z,21.46
2023-03-18T15:07:34.637Z,21.79
2023-03-18T15:10:10.893Z,22.01
2023-03-18T15:12:39.694Z,21.83
2023-03-18T15:15:14.163Z,21.76
2023-03-18T15:17:46.718Z,21.67
2023-03-18T15:20:15.723Z,21.36
2023-03-18T15:22:44.719Z,21.32
2023-03-18T15:25:20.574Z,21.23
2023-03-18T15:27:49.692Z,21.20
2023-03-18T15:30:29.261Z,21.17
2023-03-18T15:33:05.610Z,21.10
2023-03-18T15:35:34.131Z,21.02
2023-03-18T15:38:13.340Z,21.08
2023-03-18T15:40:51.892Z,20.92
2023-03-18T15:43:30.426Z,20.87
2023-03-18T15:46:00.543Z,20.81
2023-03-18T15:48:34.949Z,20.90
2023-03-18T15:51:05.363Z,20.80
2023-03-18T15:53:40.487Z,20.89
2023-03-18T15:56:19.980Z,20.92
2023-03-18T15:58:59.213Z,20.94
2023-03-18T16:01:27.521Z,20.77
2023-03-18T16:03:55.573Z,20.52
2023-03-18T16:06:24.463Z,20.57
2023-03-18T16:08:52.480Z,20.79
2023-03-18T16:11:24.165Z,20.68
2023-03-18T16:13:53.191Z,20.59
2023-03-18T16:16:27.699Z,20.70
2023-03-18T16:18:57.254Z,20.68
2023-03-18T16:21:25.145Z,20.55
2023-03-18T16:23:53.096Z,20.72
2023-03-18T16:26:22.661Z,20.86
2023-03-18T16:28:50.536Z,20.83
2023-03-18T16:31:18.749Z,20.88
2023-03-18T16:33:47.306Z,20.94
2023-03-18T16:36:28.079Z,20.48
2023-03-18T16:38:56.117Z,20.57
2023-03-18T16:41:25.911Z,20.65
2023-03-18T16:43:53.868Z,20.59
2023-03-18T16:46:22.002Z,20.69
2023-03-18T16:48:50.429Z,20.58
2023-03-18T16:51:19.567Z,20.39
2023-03-18T16:53:48.396Z,20.30
2023-03-18T16:56:18.187Z,20.30
2023-03-18T16:58:47.436Z,20.13
2023-03-18T17:01:19.365Z,20.15
2023-03-18T17:03:48.128Z,19.94
2023-03-18T17:06:16.177Z,19.96
2023-03-18T17:08:44.124Z,19.89
2023-03-18T17:11:18.896Z,19.73
2023-03-18T17:13:48.726Z,19.74
2023-03-18T17:16:20.511Z,19.70
2023-03-18T17:18:49.527Z,19.83
2023-03-18T17:21:17.799Z,19.90
2023-03-18T17:23:45.754Z,19.69
2023-03-18T17:26:15.860Z,19.76
2023-03-18T17:28:46.411Z,19.69
2023-03-18T17:31:16.621Z,19.64
2023-03-18T17:33:44.609Z,19.64
2023-03-18T17:36:12.552Z,19.58
2023-03-18T17:38:40.534Z,19.69
2023-03-18T17:41:15.885Z,19.46
2023-03-18T17:43:44.100Z,19.59
2023-03-18T17:46:12.167Z,19.45
2023-03-18T17:48:41.585Z,19.56
2023-03-18T17:51:15.419Z,19.37
2023-03-18T17:53:45.642Z,19.33
2023-03-18T17:56:15.833Z,19.09
2023-03-18T17:58:45.630Z,19.13
2023-03-18T18:01:16.366Z,18.92
2023-03-18T18:03:45.626Z,18.76
2023-03-18T18:06:18.741Z,18.91
2023-03-18T18:08:47.077Z,18.93
2023-03-18T18:11:20.124Z,18.97
2023-03-18T18:13:49.142Z,18.91
2023-03-18T18:16:17.760Z,18.76
2023-03-18T18:18:49.682Z,18.59
2023-03-18T18:21:21.172Z,18.48
2023-03-18T18:23:50.415Z,18.45
2023-03-18T18:26:21.331Z,18.52
2023-03-18T18:28:51.085Z,18.54
2023-03-18T18:31:21.171Z,18.42
2023-03-18T18:33:51.075Z,18.40
2023-03-18T18:36:19.248Z,18.37
2023-03-18T18:38:47.229Z,18.19
2023-03-18T18:41:15.272Z,18.24
2023-03-18T18:43:43.205Z,18.27
2023-03-18T18:46:14.824Z,18.19
2023-03-18T18:48:45.061Z,18.19
2023-03-18T18:51:18.330Z,18.17
2023-03-18T18:53:46.366Z,18.22
2023-03-18T18:56:18.553Z,18.14
2023-03-18T18:58:47.291Z,18.00
2023-03-18T19:01:16.034Z,17.99
2023-03-18T19:03:44.549Z,17.96
2023-03-18T19:06:24.717Z,17.92
2023-03-18T19:08:53.941Z,17.83
2023-03-18T19:11:22.297Z,17.81
2023-03-18T19:13:50.599Z,17.76
2023-03-18T19:16:27.463Z,17.70
2023-03-18T19:18:55.580Z,17.71
2023-03-18T19:21:24.949Z,17.66
2023-03-18T19:23:52.837Z,17.66
2023-03-18T19:26:21.451Z,17.63
2023-03-18T19:28:58.802Z,17.65
2023-03-18T19:31:30.634Z,17.59
2023-03-18T19:34:00.506Z,17.54
2023-03-18T19:36:32.657Z,17.45
2023-03-18T19:39:03.050Z,17.43
2023-03-18T19:41:31.440Z,17.38
2023-03-18T19:44:04.096Z,17.22
2023-03-18T19:46:36.555Z,17.08
2023-03-18T19:49:04.608Z,16.91
2023-03-18T19:51:34.002Z,17.01
2023-03-18T19:54:02.206Z,17.13
2023-03-18T19:56:31.430Z,17.07
2023-03-18T19:59:00.357Z,17.25
2023-03-18T20:01:29.428Z,17.31
2023-03-18T20:03:59.061Z,17.19
2023-03-18T20:06:27.779Z,16.93
2023-03-18T20:08:57.132Z,17.00
2023-03-18T20:11:25.261Z,16.80
2023-03-18T20:13:53.228Z,16.89
2023-03-18T20:16:21.852Z,17.06
2023-03-18T20:18:49.778Z,17.18
2023-03-18T20:21:24.627Z,17.40
2023-03-18T20:23:53.936Z,17.23
2023-03-18T20:26:23.985Z,16.81
2023-03-18T20:28:55.499Z,16.85
2023-03-18T20:31:23.465Z,16.82
2023-03-18T20:33:51.489Z,17.07
2023-03-18T20:36:20.696Z,16.96
2023-03-18T20:38:50.021Z,16.97
2023-03-18T20:41:19.117Z,17.00
2023-03-18T20:43:49.347Z,16.85
2023-03-18T20:46:18.359Z,16.74
2023-03-18T20:48:48.955Z,16.67
2023-03-18T20:51:21.960Z,16.57
2023-03-18T20:53:50.637Z,16.72
2023-03-18T20:56:22.355Z,16.58
2023-03-18T20:58:52.100Z,16.69
2023-03-18T21:01:20.376Z,16.75
2023-03-18T21:03:49.010Z,16.58
2023-03-18T21:06:19.209Z,16.49
2023-03-18T21:08:47.077Z,16.61
2023-03-18T21:11:23.213Z,16.50
2023-03-18T21:13:52.781Z,16.41
2023-03-18T21:16:21.477Z,16.32
2023-03-18T21:18:49.959Z,16.33
2023-03-18T21:21:24.080Z,16.22
2023-03-18T21:23:53.045Z,16.20
2023-03-18T21:26:21.700Z,16.18
2023-03-18T21:28:49.639Z,16.22
2023-03-18T21:31:26.147Z,16.24
2023-03-18T21:33:55.297Z,16.15
2023-03-18T21:36:23.482Z,16.00
2023-03-18T21:38:51.459Z,15.95
2023-03-18T21:41:22.100Z,15.99
2023-03-18T21:43:51.020Z,15.89
2023-03-18T21:46:21.193Z,15.87
2023-03-18T21:48:50.934Z,15.85
2023-03-18T21:51:38.177Z,15.89
2023-03-18T21:54:07.527Z,15.91
2023-03-18T21:56:35.487Z,15.88
2023-03-18T21:59:03.402Z,15.64
2023-03-18T22:01:32.509Z,15.77
2023-03-18T22:04:02.161Z,15.65
2023-03-18T22:06:30.175Z,15.71
2023-03-18T22:08:58.145Z,15.63
2023-03-18T22:11:26.190Z,15.71
2023-03-18T22:13:54.525Z,15.69
2023-03-18T22:16:22.651Z,15.63
2023-03-18T22:18:51.358Z,15.61
2023-03-18T22:21:24.315Z,15.63
2023-03-18T22:23:52.674Z,15.57
2023-03-18T22:26:21.845Z,15.52
2023-03-18T22:28:50.587Z,15.55
2023-03-18T22:31:21.815Z,15.21
2023-03-18T22:33:50.961Z,15.46
2023-03-18T22:36:22.626Z,15.28
2023-03-18T22:38:50.924Z,15.28
2023-03-18T22:41:21.526Z,15.07
2023-03-18T22:43:53.565Z,14.96
2023-03-18T22:46:21.522Z,14.95
2023-03-18T22:48:49.510Z,14.95
2023-03-18T22:51:24.644Z,14.84
2023-03-18T22:53:54.541Z,14.79
2023-03-18T22:56:24.612Z,14.81
2023-03-18T22:58:56.036Z,14.58
2023-03-18T23:01:29.674Z,14.60
2023-03-18T23:03:57.907Z,14.84
2023-03-18T23:06:30.216Z,14.71
2023-03-18T23:08:58.518Z,14.61
2023-03-18T23:11:27.189Z,14.41
2023-03-18T23:13:55.301Z,14.41
2023-03-18T23:16:26.069Z,14.43
2023-03-18T23:18:54.490Z,14.39
2023-03-18T23:21:27.367Z,14.47
2023-03-18T23:24:01.024Z,14.46
2023-03-18T23:26:28.944Z,14.42
2023-03-18T23:28:56.898Z,14.40
2023-03-18T23:31:24.896Z,14.54
2023-03-18T23:33:56.341Z,14.58
2023-03-18T23:36:24.429Z,14.53
2023-03-18T23:38:54.892Z,14.41
2023-03-18T23:41:23.123Z,14.31
2023-03-18T23:43:51.103Z,14.01
2023-03-18T23:46:19.160Z,13.99
2023-03-18T23:48:47.114Z,13.88
2023-03-18T23:51:15.005Z,13.83
2023-03-18T23:53:42.850Z,13.85
2023-03-18T23:56:13.672Z,13.93
2023-03-18T23:58:41.638Z,13.83
